Hauptseite
METAR-TAF:

METAR-TAF

Flughäfen :

Wings Field

Philadelphia / Blue Bell, Pennsylvania, Vereinigte Staaten

Breite: 40-08-15N, Länge: 075-15-54W, Höhe: 92 m

Beobachtung

Neuester Wetterbericht von vor 32 Minuten, um 06:15 UTC
Windstille
Temperatur 8°C
Luftfeuchtigkeit 93%
Luftdruck 1003 hPa
Sichtweite: 11.3 km
Himmel klar

METAR: KLOM 090615Z AUTO 00000KT 7SM CLR 08/07 A2961 RMK AO2 T00770072

Zeit: 02:47 (06:47 UTC)


TAF: fehlend

Wetterbeobachtungen und Prognosen von mehr als 4000 Flughäfen (METAR und TAF Bericht).

Die verfügbaren Stationen werden durch gelbe und rote Markierungen auf der Karte dargestellt.

Führen Sie die Maus auf sie, um den Namen der Station zu sehen.

Darauf klicken, um die Beobachtung von Wetterbeobachtungen und Prognosen zu sehen.

Um die Karte zu ändern : klicken Sie auf den grünen Tasten mit einem schwarzen Kreuz Zum Vergrößern, auf den grünen Button mit einem Gedankenstrich zu verkleinern, oder auf die grünen Pfeile für benachbarte Karten.


METAR-TAF: